Terminal Aerodrome Forecast
Issued by NWS Indianapolis, IN

Current Version | Previous Version | Text Only | Print | Product List | Glossary On
Versions: 1 2 3 4 5 6 7 8 9 10 11 12 13 14 15 16 17 18 19 20 21 22 23 24 25 26 27 28 29 30 31 32
000
FTUS43 KIND 040224 AAA
TAFIND
TAF AMD
KIND 040224Z 0402/0506 22004KT P6SM BKN100
     FM041200 23009KT P6SM SHRA OVC025
     FM041500 27011G16KT P6SM SHRA OVC010
     FM041800 32014G22KT P6SM VCSH OVC015
     FM042100 33014G24KT P6SM BKN035
     FM050500 32011G19KT P6SM BKN020=

USA.gov is the U.S. government's official web portal to all federal, state and local government web resources and services.